Souderton, PA (18964)

7:02 PM EST on March 05, 2015 (GMT -0500)
Elroy | Change Station
CLOSE
Current Station
Personal Weather Station
Location: Souderton, PA
Elevation: 358 ft
Nearby Weather Stations

Elev 358 ft 40.28 °N, 75.33 °W | Updated 2 minutes ago

Snow
Snow
17.6 °F
Feels Like 18 °F
N
1.0
Wind Variable Wind from WNW
Gusts 2.0 mph

Today
High -- | Low -- °F
--% Chance of Precip.
Yesterday
High -- | Low -- °F
Precip. -- in
6:29 AM 5:57 PM
Full, 100% visible
Pressure 30.28 in
Visibility 10.0 miles
Clouds Scattered Clouds 4100 ft
Scattered Clouds 4700 ft
Windchill 18 °F
Dew Point 16 °F
Humidity 92%
Rainfall in
Snow Depth Not available.
UV 0 out of 12
Pollen .60 out of 12
Air Quality Not available.
Flu Activity Not available.
METAR KUKT 052355Z AUTO 32004KT 10SM SCT041 SCT047 M08/M11 A3028 RMK AO1

More Conditions Fewer Conditions

Pressure 30.28 in
Visibility 10.0 miles
Clouds Scattered Clouds 4100 ft
Scattered Clouds 4700 ft
Windchill 18 °F
Dew Point 16 °F
Humidity 92%
Rainfall in
Snow Depth Not available.
UV 0 out of 12
Pollen .60 out of 12
Air Quality Not available.
Flu Activity Not available.
METAR KUKT 052355Z AUTO 32004KT 10SM SCT041 SCT047 M08/M11 A3028 RMK AO1

More Conditions Fewer Conditions

10-Day Weather Forecast

Almanac

Astronomy

Mar. 05, 2015 Rise Set
Actual Time
Civil Twilight
Nautical Twilight
Astronomical Twilight
Moon
Length of Visible Light
Length of Day
Tomorrow will be .
, % of the Moon is Illuminated

Today's Extremes

State Highs State Lows

Community

WunderPhotos

Upload Photos

1,803,066 photos uploaded!

WunderBlogs® & News

Nearby

Air Quality

  Air Quality AQ Index Pollutant
Not available.

Snow Depth

Station Depth Elevation

Earthquake Activity

City Distance Mag. Time & Date
Minimum magnitude displayed is 2.5.

Coastal Water Temperatures

Place Temperature

Nearby Weather Stations